This is the latest recevied weather packets stored in our database for station/object Wangen. If no packets are shown the sender has not sent any weather packets the latest 1 day(s).
| Time | Temp. | Humidity | Pressure | Rain* | Wind** | Luminosity | Snow |
|---|---|---|---|---|---|---|---|
| 1836273905 | 13.33° C | 93% | 1020.8 hPa | 0 mm | 0 m/s | - | - |
| 1778007735 | 12.22° C | 92% | 1008.3 hPa | 2.79 mm | 1.34 m/s, 193° | - | - |
| 1778005932 | 12.78° C | 89% | 1008.1 hPa | 1.52 mm | 6.71 m/s, 282° | - | - |
| 1778004131 | 14.44° C | 89% | 1006.8 hPa | 0.76 mm | 0.89 m/s, 239° | - | - |
| 1778002330 | 14.44° C | 87% | 1006.5 hPa | 0.25 mm | 1.34 m/s, 198° | - | - |
| 1778000530 | 15° C | 86% | 1006.1 hPa | 0.25 mm | 2.24 m/s, 194° | - | - |
| 1777998731 | 15.56° C | 85% | 1005.9 hPa | 0.25 mm | 3.58 m/s, 217° | - | - |
| 1777995130 | 15° C | 87% | 1005.4 hPa | 0.25 mm | 0 m/s | - | - |
| 1777993336 | 16.11° C | 78% | 1005.9 hPa | 0 mm | 4.47 m/s, 232° | - | - |
| 1777991532 | 18.33° C | 66% | 1005.6 hPa | 0 mm | 3.13 m/s, 272° | - | - |
| 1777989730 | 18.33° C | 65% | 1005.6 hPa | 0 mm | 1.79 m/s, 275° | - | - |
| 1777987930 | 17.22° C | 67% | 1005.8 hPa | 0 mm | 1.79 m/s, 213° | - | - |
| 1777986130 | 17.22° C | 67% | 1005.9 hPa | 0 mm | 1.79 m/s, 157° | - | - |
| 1777984330 | 16.67° C | 69% | 1006.1 hPa | 0 mm | 1.79 m/s, 234° | - | - |
| 1777982530 | 15.56° C | 76% | 1006.4 hPa | 0 mm | 1.79 m/s, 231° | - | - |
| 1777980730 | 15° C | 77% | 1006.4 hPa | 0 mm | 1.34 m/s, 43° | - | - |
| 1777978931 | 14.44° C | 79% | 1006.8 hPa | 0 mm | 1.79 m/s, 254° | - | - |
| 1777977131 | 14.44° C | 77% | 1006.8 hPa | 0 mm | 4.47 m/s, 233° | - | - |
| 1777975332 | 15° C | 78% | 1006.6 hPa | 0 mm | 2.24 m/s, 248° | - | - |
| 1777973532 | 15° C | 79% | 1006.7 hPa | 0 mm | 2.68 m/s, 250° | - | - |
| 1777971732 | 15.56° C | 78% | 1006.7 hPa | 0 mm | 1.79 m/s, 264° | - | - |
| 1777969931 | 15° C | 77% | 1006.9 hPa | 0 mm | 2.24 m/s, 250° | - | - |
| 1777968131 | 14.44° C | 79% | 1007.1 hPa | 0 mm | 1.79 m/s, 219° | - | - |
| 1777966330 | 13.33° C | 82% | 1007.3 hPa | 0 mm | 0 m/s | - | - |
| 1777964532 | 12.22° C | 83% | 1007.5 hPa | 0 mm | 0 m/s | - | - |
* Rain since midnight (hover to see other rain measurements)
** Current wind speed in m/s (hover to see current wind gust speed)